sensor_id;sensor_type;location;lat;lon;timestamp;P1;durP1;ratioP1;P2;durP2;ratioP2
52534;SDS011;38443;53.164;5.802;2024-03-17T00:01:48;4.17;;;2.80;;
52534;SDS011;38443;53.164;5.802;2024-03-17T00:04:13;5.90;;;2.37;;
52534;SDS011;38443;53.164;5.802;2024-03-17T00:06:38;4.80;;;3.30;;
52534;SDS011;38443;53.164;5.802;2024-03-17T00:09:03;5.73;;;2.53;;
52534;SDS011;38443;53.164;5.802;2024-03-17T00:11:32;4.35;;;2.40;;
52534;SDS011;38443;53.164;5.802;2024-03-17T00:16:22;3.63;;;2.50;;
52534;SDS011;38443;53.164;5.802;2024-03-17T00:21:12;3.58;;;2.42;;
52534;SDS011;38443;53.164;5.802;2024-03-17T00:26:03;2.65;;;2.38;;
52534;SDS011;38443;53.164;5.802;2024-03-17T00:30:54;4.07;;;2.47;;
52534;SDS011;38443;53.164;5.802;2024-03-17T00:35:44;7.57;;;2.70;;
52534;SDS011;38443;53.164;5.802;2024-03-17T00:40:38;4.68;;;2.33;;
52534;SDS011;38443;53.164;5.802;2024-03-17T00:45:28;3.67;;;2.70;;
52534;SDS011;38443;53.164;5.802;2024-03-17T00:47:53;5.03;;;2.80;;
52534;SDS011;38443;53.164;5.802;2024-03-17T00:52:44;4.60;;;3.00;;
52534;SDS011;38443;53.164;5.802;2024-03-17T00:55:09;4.13;;;2.33;;
52534;SDS011;38443;53.164;5.802;2024-03-17T01:00:00;6.43;;;2.70;;
52534;SDS011;38443;53.164;5.802;2024-03-17T01:04:50;3.83;;;2.58;;
52534;SDS011;38443;53.164;5.802;2024-03-17T01:09:41;6.85;;;2.63;;
52534;SDS011;38443;53.164;5.802;2024-03-17T01:14:31;5.47;;;2.67;;
52534;SDS011;38443;53.164;5.802;2024-03-17T01:19:22;3.93;;;2.23;;
52534;SDS011;38443;53.164;5.802;2024-03-17T01:24:12;4.50;;;2.22;;
52534;SDS011;38443;53.164;5.802;2024-03-17T01:29:03;4.80;;;2.65;;
52534;SDS011;38443;53.164;5.802;2024-03-17T01:33:53;9.68;;;2.53;;
52534;SDS011;38443;53.164;5.802;2024-03-17T01:38:43;3.80;;;2.35;;
52534;SDS011;38443;53.164;5.802;2024-03-17T01:43:34;5.00;;;2.70;;
52534;SDS011;38443;53.164;5.802;2024-03-17T01:48:27;3.00;;;2.00;;
52534;SDS011;38443;53.164;5.802;2024-03-17T01:53:17;4.03;;;2.60;;
52534;SDS011;38443;53.164;5.802;2024-03-17T01:58:07;6.68;;;2.45;;
52534;SDS011;38443;53.164;5.802;2024-03-17T02:00:35;3.78;;;2.42;;
52534;SDS011;38443;53.164;5.802;2024-03-17T02:03:02;5.22;;;2.80;;
52534;SDS011;38443;53.164;5.802;2024-03-17T02:05:28;6.40;;;2.72;;
52534;SDS011;38443;53.164;5.802;2024-03-17T02:10:18;4.72;;;3.00;;
52534;SDS011;38443;53.164;5.802;2024-03-17T02:15:09;4.18;;;2.70;;
52534;SDS011;38443;53.164;5.802;2024-03-17T02:19:59;8.30;;;2.80;;
52534;SDS011;38443;53.164;5.802;2024-03-17T02:24:50;7.45;;;3.28;;
52534;SDS011;38443;53.164;5.802;2024-03-17T02:29:40;7.43;;;3.22;;
52534;SDS011;38443;53.164;5.802;2024-03-17T02:34:35;4.18;;;3.33;;
52534;SDS011;38443;53.164;5.802;2024-03-17T02:37:00;4.30;;;2.70;;
52534;SDS011;38443;53.164;5.802;2024-03-17T02:39:26;5.45;;;3.47;;
52534;SDS011;38443;53.164;5.802;2024-03-17T02:46:52;5.10;;;3.20;;
52534;SDS011;38443;53.164;5.802;2024-03-17T02:51:43;6.50;;;3.22;;
52534;SDS011;38443;53.164;5.802;2024-03-17T02:56:33;5.13;;;3.88;;
52534;SDS011;38443;53.164;5.802;2024-03-17T03:01:24;7.03;;;2.70;;
52534;SDS011;38443;53.164;5.802;2024-03-17T03:06:15;6.97;;;3.65;;
52534;SDS011;38443;53.164;5.802;2024-03-17T03:08:43;4.60;;;2.70;;
52534;SDS011;38443;53.164;5.802;2024-03-17T03:16:01;4.10;;;2.70;;
52534;SDS011;38443;53.164;5.802;2024-03-17T03:18:26;4.65;;;2.90;;
52534;SDS011;38443;53.164;5.802;2024-03-17T03:23:17;6.82;;;2.63;;
52534;SDS011;38443;53.164;5.802;2024-03-17T03:25:43;5.72;;;3.08;;
52534;SDS011;38443;53.164;5.802;2024-03-17T03:30:37;7.63;;;3.13;;
52534;SDS011;38443;53.164;5.802;2024-03-17T03:33:03;4.82;;;2.70;;
52534;SDS011;38443;53.164;5.802;2024-03-17T03:35:30;4.93;;;2.85;;
52534;SDS011;38443;53.164;5.802;2024-03-17T03:40:20;4.68;;;3.05;;
52534;SDS011;38443;53.164;5.802;2024-03-17T03:45:11;6.05;;;2.83;;
52534;SDS011;38443;53.164;5.802;2024-03-17T03:47:42;5.45;;;3.13;;
52534;SDS011;38443;53.164;5.802;2024-03-17T03:50:08;5.68;;;2.97;;
52534;SDS011;38443;53.164;5.802;2024-03-17T03:52:37;6.47;;;3.17;;
52534;SDS011;38443;53.164;5.802;2024-03-17T03:57:29;11.93;;;3.30;;
52534;SDS011;38443;53.164;5.802;2024-03-17T04:02:20;5.57;;;3.45;;
52534;SDS011;38443;53.164;5.802;2024-03-17T04:04:45;7.43;;;3.47;;
52534;SDS011;38443;53.164;5.802;2024-03-17T04:09:37;4.07;;;2.85;;
52534;SDS011;38443;53.164;5.802;2024-03-17T04:14:27;5.53;;;3.00;;
52534;SDS011;38443;53.164;5.802;2024-03-17T04:16:54;5.65;;;3.13;;
52534;SDS011;38443;53.164;5.802;2024-03-17T04:21:46;5.65;;;3.08;;
52534;SDS011;38443;53.164;5.802;2024-03-17T04:26:37;5.43;;;3.20;;
52534;SDS011;38443;53.164;5.802;2024-03-17T04:29:03;5.30;;;2.92;;
52534;SDS011;38443;53.164;5.802;2024-03-17T04:31:29;5.93;;;2.78;;
52534;SDS011;38443;53.164;5.802;2024-03-17T04:36:19;7.25;;;2.95;;
52534;SDS011;38443;53.164;5.802;2024-03-17T04:41:10;7.77;;;3.17;;
52534;SDS011;38443;53.164;5.802;2024-03-17T04:43:35;4.07;;;2.65;;
52534;SDS011;38443;53.164;5.802;2024-03-17T04:48:26;5.65;;;2.80;;
52534;SDS011;38443;53.164;5.802;2024-03-17T04:50:52;3.50;;;2.28;;
52534;SDS011;38443;53.164;5.802;2024-03-17T04:55:42;4.23;;;2.93;;
52534;SDS011;38443;53.164;5.802;2024-03-17T04:58:07;4.10;;;2.83;;
52534;SDS011;38443;53.164;5.802;2024-03-17T05:00:33;7.07;;;2.67;;
52534;SDS011;38443;53.164;5.802;2024-03-17T05:05:23;3.70;;;2.35;;
52534;SDS011;38443;53.164;5.802;2024-03-17T05:10:15;6.00;;;2.50;;
52534;SDS011;38443;53.164;5.802;2024-03-17T05:15:05;4.35;;;2.00;;
52534;SDS011;38443;53.164;5.802;2024-03-17T05:19:56;6.17;;;2.87;;
52534;SDS011;38443;53.164;5.802;2024-03-17T05:24:46;5.05;;;2.72;;
52534;SDS011;38443;53.164;5.802;2024-03-17T05:29:36;5.30;;;2.40;;
52534;SDS011;38443;53.164;5.802;2024-03-17T05:32:03;6.53;;;3.05;;
52534;SDS011;38443;53.164;5.802;2024-03-17T05:36:53;7.13;;;2.85;;
52534;SDS011;38443;53.164;5.802;2024-03-17T05:41:45;5.65;;;2.53;;
52534;SDS011;38443;53.164;5.802;2024-03-17T05:44:13;5.45;;;2.35;;
52534;SDS011;38443;53.164;5.802;2024-03-17T05:46:39;3.72;;;2.47;;
52534;SDS011;38443;53.164;5.802;2024-03-17T05:51:31;4.63;;;2.80;;
52534;SDS011;38443;53.164;5.802;2024-03-17T05:56:23;5.15;;;2.58;;
52534;SDS011;38443;53.164;5.802;2024-03-17T06:01:14;4.78;;;3.05;;
52534;SDS011;38443;53.164;5.802;2024-03-17T06:06:04;4.85;;;2.40;;
52534;SDS011;38443;53.164;5.802;2024-03-17T06:08:32;3.67;;;2.58;;
52534;SDS011;38443;53.164;5.802;2024-03-17T06:13:25;4.13;;;2.72;;
52534;SDS011;38443;53.164;5.802;2024-03-17T06:18:15;2.58;;;2.38;;
52534;SDS011;38443;53.164;5.802;2024-03-17T06:20:43;5.38;;;2.60;;
52534;SDS011;38443;53.164;5.802;2024-03-17T06:23:12;5.32;;;2.97;;
52534;SDS011;38443;53.164;5.802;2024-03-17T06:25:41;5.38;;;3.30;;
52534;SDS011;38443;53.164;5.802;2024-03-17T06:28:07;6.50;;;3.00;;
52534;SDS011;38443;53.164;5.802;2024-03-17T06:32:59;5.50;;;2.85;;
52534;SDS011;38443;53.164;5.802;2024-03-17T06:35:26;5.35;;;2.92;;
52534;SDS011;38443;53.164;5.802;2024-03-17T06:40:17;9.23;;;3.13;;
52534;SDS011;38443;53.164;5.802;2024-03-17T06:45:07;4.97;;;3.33;;
52534;SDS011;38443;53.164;5.802;2024-03-17T06:49:58;4.82;;;3.17;;
52534;SDS011;38443;53.164;5.802;2024-03-17T06:54:48;10.10;;;3.45;;
52534;SDS011;38443;53.164;5.802;2024-03-17T06:57:15;6.82;;;3.63;;
52534;SDS011;38443;53.164;5.802;2024-03-17T07:02:05;5.03;;;3.20;;
52534;SDS011;38443;53.164;5.802;2024-03-17T07:06:55;6.07;;;3.47;;
52534;SDS011;38443;53.164;5.802;2024-03-17T07:11:46;5.47;;;3.87;;
52534;SDS011;38443;53.164;5.802;2024-03-17T07:14:11;10.07;;;3.97;;
52534;SDS011;38443;53.164;5.802;2024-03-17T07:19:02;7.82;;;4.00;;
52534;SDS011;38443;53.164;5.802;2024-03-17T09:33:04;11.85;;;6.75;;
52534;SDS011;38443;53.164;5.802;2024-03-17T09:35:29;14.30;;;7.32;;
52534;SDS011;38443;53.164;5.802;2024-03-17T09:37:54;12.53;;;6.67;;
52534;SDS011;38443;53.164;5.802;2024-03-17T09:40:20;12.37;;;6.83;;
52534;SDS011;38443;53.164;5.802;2024-03-17T09:42:45;13.03;;;7.30;;
52534;SDS011;38443;53.164;5.802;2024-03-17T09:47:36;13.50;;;6.82;;
52534;SDS011;38443;53.164;5.802;2024-03-17T09:50:01;11.75;;;6.47;;
52534;SDS011;38443;53.164;5.802;2024-03-17T09:52:27;10.30;;;6.47;;
52534;SDS011;38443;53.164;5.802;2024-03-17T09:54:59;12.48;;;6.95;;
52534;SDS011;38443;53.164;5.802;2024-03-17T09:57:25;11.48;;;6.47;;
52534;SDS011;38443;53.164;5.802;2024-03-17T09:59:54;13.63;;;7.13;;
52534;SDS011;38443;53.164;5.802;2024-03-17T10:02:20;11.00;;;6.50;;
52534;SDS011;38443;53.164;5.802;2024-03-17T10:04:45;13.40;;;7.30;;
52534;SDS011;38443;53.164;5.802;2024-03-17T10:07:11;12.63;;;7.55;;
52534;SDS011;38443;53.164;5.802;2024-03-17T10:09:36;9.00;;;6.30;;
52534;SDS011;38443;53.164;5.802;2024-03-17T10:12:01;9.83;;;6.70;;
52534;SDS011;38443;53.164;5.802;2024-03-17T10:14:27;10.02;;;7.30;;
52534;SDS011;38443;53.164;5.802;2024-03-17T10:16:52;10.90;;;6.30;;
52534;SDS011;38443;53.164;5.802;2024-03-17T10:19:21;10.50;;;6.13;;
52534;SDS011;38443;53.164;5.802;2024-03-17T10:21:47;10.38;;;6.32;;
52534;SDS011;38443;53.164;5.802;2024-03-17T10:24:23;15.10;;;7.00;;
52534;SDS011;38443;53.164;5.802;2024-03-17T10:26:52;9.98;;;6.72;;
52534;SDS011;38443;53.164;5.802;2024-03-17T10:31:42;10.20;;;6.40;;
52534;SDS011;38443;53.164;5.802;2024-03-17T10:34:09;12.38;;;6.63;;
52534;SDS011;38443;53.164;5.802;2024-03-17T10:36:39;10.90;;;7.68;;
52534;SDS011;38443;53.164;5.802;2024-03-17T10:39:04;12.57;;;6.83;;
52534;SDS011;38443;53.164;5.802;2024-03-17T10:41:29;11.17;;;5.80;;
52534;SDS011;38443;53.164;5.802;2024-03-17T10:43:58;14.68;;;7.10;;
52534;SDS011;38443;53.164;5.802;2024-03-17T10:46:24;9.38;;;6.47;;
52534;SDS011;38443;53.164;5.802;2024-03-17T10:48:50;10.98;;;6.32;;
52534;SDS011;38443;53.164;5.802;2024-03-17T10:51:16;10.88;;;6.22;;
52534;SDS011;38443;53.164;5.802;2024-03-17T10:53:42;8.07;;;6.65;;
52534;SDS011;38443;53.164;5.802;2024-03-17T10:56:08;9.65;;;5.80;;
52534;SDS011;38443;53.164;5.802;2024-03-17T10:58:38;11.15;;;6.38;;
52534;SDS011;38443;53.164;5.802;2024-03-17T11:01:11;10.00;;;6.45;;
52534;SDS011;38443;53.164;5.802;2024-03-17T11:03:38;10.90;;;6.40;;
52534;SDS011;38443;53.164;5.802;2024-03-17T11:06:03;12.27;;;6.43;;
52534;SDS011;38443;53.164;5.802;2024-03-17T11:08:30;10.10;;;6.65;;
52534;SDS011;38443;53.164;5.802;2024-03-17T11:10:56;11.82;;;6.53;;
52534;SDS011;38443;53.164;5.802;2024-03-17T11:13:22;10.53;;;6.60;;
52534;SDS011;38443;53.164;5.802;2024-03-17T11:15:48;9.52;;;6.53;;
52534;SDS011;38443;53.164;5.802;2024-03-17T11:20:39;11.30;;;5.70;;
52534;SDS011;38443;53.164;5.802;2024-03-17T11:23:04;8.45;;;5.72;;
52534;SDS011;38443;53.164;5.802;2024-03-17T11:28:02;8.02;;;6.40;;
52534;SDS011;38443;53.164;5.802;2024-03-17T11:35:48;8.25;;;5.88;;
52534;SDS011;38443;53.164;5.802;2024-03-17T11:43:42;10.63;;;6.38;;
52534;SDS011;38443;53.164;5.802;2024-03-17T11:46:09;12.98;;;6.03;;
52534;SDS011;38443;53.164;5.802;2024-03-17T11:48:35;10.85;;;6.30;;
52534;SDS011;38443;53.164;5.802;2024-03-17T11:51:02;7.15;;;5.80;;
52534;SDS011;38443;53.164;5.802;2024-03-17T11:53:27;8.18;;;6.03;;
52534;SDS011;38443;53.164;5.802;2024-03-17T11:55:53;8.57;;;6.22;;
52534;SDS011;38443;53.164;5.802;2024-03-17T11:58:18;8.55;;;6.38;;
52534;SDS011;38443;53.164;5.802;2024-03-17T12:00:44;9.45;;;6.55;;
52534;SDS011;38443;53.164;5.802;2024-03-17T12:03:16;9.95;;;5.80;;
52534;SDS011;38443;53.164;5.802;2024-03-17T12:05:41;9.35;;;6.32;;
52534;SDS011;38443;53.164;5.802;2024-03-17T12:08:17;7.90;;;6.38;;
52534;SDS011;38443;53.164;5.802;2024-03-17T12:10:48;8.07;;;6.03;;
52534;SDS011;38443;53.164;5.802;2024-03-17T12:13:13;10.23;;;6.47;;
52534;SDS011;38443;53.164;5.802;2024-03-17T12:15:38;10.40;;;6.47;;
52534;SDS011;38443;53.164;5.802;2024-03-17T12:18:03;10.90;;;6.77;;
52534;SDS011;38443;53.164;5.802;2024-03-17T12:20:29;8.75;;;6.40;;
52534;SDS011;38443;53.164;5.802;2024-03-17T12:22:54;8.65;;;6.43;;
52534;SDS011;38443;53.164;5.802;2024-03-17T12:25:20;9.23;;;6.20;;
52534;SDS011;38443;53.164;5.802;2024-03-17T12:27:45;11.75;;;6.95;;
52534;SDS011;38443;53.164;5.802;2024-03-17T12:30:11;8.27;;;6.10;;
52534;SDS011;38443;53.164;5.802;2024-03-17T12:32:37;12.50;;;6.85;;
52534;SDS011;38443;53.164;5.802;2024-03-17T12:35:02;9.07;;;6.75;;
52534;SDS011;38443;53.164;5.802;2024-03-17T12:37:28;11.30;;;6.90;;
52534;SDS011;38443;53.164;5.802;2024-03-17T12:39:58;15.65;;;7.40;;
52534;SDS011;38443;53.164;5.802;2024-03-17T12:42:25;12.32;;;6.90;;
52534;SDS011;38443;53.164;5.802;2024-03-17T12:44:54;10.65;;;7.30;;
52534;SDS011;38443;53.164;5.802;2024-03-17T12:47:23;10.95;;;6.85;;
52534;SDS011;38443;53.164;5.802;2024-03-17T12:49:49;11.30;;;6.97;;
52534;SDS011;38443;53.164;5.802;2024-03-17T12:52:51;9.48;;;6.82;;
52534;SDS011;38443;53.164;5.802;2024-03-17T12:55:09;9.82;;;7.03;;
52534;SDS011;38443;53.164;5.802;2024-03-17T13:00:45;11.02;;;6.35;;
52534;SDS011;38443;53.164;5.802;2024-03-17T13:03:21;11.52;;;5.68;;
52534;SDS011;38443;53.164;5.802;2024-03-17T13:05:48;10.02;;;6.20;;
52534;SDS011;38443;53.164;5.802;2024-03-17T13:08:13;9.47;;;6.00;;
52534;SDS011;38443;53.164;5.802;2024-03-17T13:10:38;11.20;;;6.33;;
52534;SDS011;38443;53.164;5.802;2024-03-17T13:13:04;10.30;;;7.10;;
52534;SDS011;38443;53.164;5.802;2024-03-17T13:15:30;8.85;;;6.50;;
52534;SDS011;38443;53.164;5.802;2024-03-17T13:17:56;10.75;;;6.65;;
52534;SDS011;38443;53.164;5.802;2024-03-17T13:20:22;8.80;;;6.35;;
52534;SDS011;38443;53.164;5.802;2024-03-17T13:22:47;13.83;;;6.53;;
52534;SDS011;38443;53.164;5.802;2024-03-17T13:25:15;11.73;;;6.73;;
52534;SDS011;38443;53.164;5.802;2024-03-17T13:27:41;8.57;;;5.97;;
52534;SDS011;38443;53.164;5.802;2024-03-17T13:30:07;8.18;;;5.68;;
52534;SDS011;38443;53.164;5.802;2024-03-17T13:32:34;10.43;;;6.13;;
52534;SDS011;38443;53.164;5.802;2024-03-17T13:34:59;11.52;;;6.10;;
52534;SDS011;38443;53.164;5.802;2024-03-17T13:37:24;9.70;;;6.53;;
52534;SDS011;38443;53.164;5.802;2024-03-17T13:39:49;9.60;;;6.83;;
52534;SDS011;38443;53.164;5.802;2024-03-17T13:42:14;12.33;;;6.67;;
52534;SDS011;38443;53.164;5.802;2024-03-17T13:44:41;10.55;;;7.20;;
52534;SDS011;38443;53.164;5.802;2024-03-17T13:47:06;9.87;;;6.63;;
52534;SDS011;38443;53.164;5.802;2024-03-17T13:49:32;12.07;;;6.68;;
52534;SDS011;38443;53.164;5.802;2024-03-17T13:51:58;9.70;;;6.00;;
52534;SDS011;38443;53.164;5.802;2024-03-17T13:54:24;9.73;;;6.68;;
52534;SDS011;38443;53.164;5.802;2024-03-17T13:56:49;9.18;;;6.63;;
52534;SDS011;38443;53.164;5.802;2024-03-17T13:59:15;9.98;;;6.93;;
52534;SDS011;38443;53.164;5.802;2024-03-17T14:01:41;11.45;;;6.47;;
52534;SDS011;38443;53.164;5.802;2024-03-17T14:04:11;9.82;;;6.70;;
52534;SDS011;38443;53.164;5.802;2024-03-17T14:06:37;9.18;;;6.50;;
52534;SDS011;38443;53.164;5.802;2024-03-17T14:09:03;8.98;;;6.28;;
52534;SDS011;38443;53.164;5.802;2024-03-17T14:11:28;10.68;;;6.50;;
52534;SDS011;38443;53.164;5.802;2024-03-17T14:13:54;12.88;;;6.57;;
52534;SDS011;38443;53.164;5.802;2024-03-17T14:16:19;9.67;;;6.57;;
52534;SDS011;38443;53.164;5.802;2024-03-17T14:18:44;8.57;;;6.30;;
52534;SDS011;38443;53.164;5.802;2024-03-17T14:21:09;10.67;;;6.87;;
52534;SDS011;38443;53.164;5.802;2024-03-17T14:23:35;10.80;;;6.90;;
52534;SDS011;38443;53.164;5.802;2024-03-17T14:26:00;9.03;;;6.53;;
52534;SDS011;38443;53.164;5.802;2024-03-17T14:28:25;10.63;;;6.57;;
52534;SDS011;38443;53.164;5.802;2024-03-17T14:30:52;10.13;;;6.73;;
52534;SDS011;38443;53.164;5.802;2024-03-17T14:33:17;9.85;;;6.43;;
52534;SDS011;38443;53.164;5.802;2024-03-17T14:35:42;12.80;;;6.50;;
52534;SDS011;38443;53.164;5.802;2024-03-17T14:38:09;10.20;;;6.40;;
52534;SDS011;38443;53.164;5.802;2024-03-17T14:40:34;10.43;;;6.60;;
52534;SDS011;38443;53.164;5.802;2024-03-17T14:43:00;9.27;;;6.20;;
52534;SDS011;38443;53.164;5.802;2024-03-17T14:45:27;8.77;;;6.47;;
52534;SDS011;38443;53.164;5.802;2024-03-17T14:47:53;9.80;;;6.18;;
52534;SDS011;38443;53.164;5.802;2024-03-17T14:50:18;9.73;;;6.47;;
52534;SDS011;38443;53.164;5.802;2024-03-17T14:52:44;9.60;;;6.13;;
52534;SDS011;38443;53.164;5.802;2024-03-17T14:55:10;10.88;;;6.88;;
52534;SDS011;38443;53.164;5.802;2024-03-17T14:57:35;9.23;;;6.93;;
52534;SDS011;38443;53.164;5.802;2024-03-17T15:00:02;9.07;;;5.72;;
52534;SDS011;38443;53.164;5.802;2024-03-17T15:02:27;9.70;;;6.85;;
52534;SDS011;38443;53.164;5.802;2024-03-17T15:04:53;11.37;;;6.80;;
52534;SDS011;38443;53.164;5.802;2024-03-17T15:07:18;8.65;;;6.00;;
52534;SDS011;38443;53.164;5.802;2024-03-17T15:09:43;9.63;;;6.73;;
52534;SDS011;38443;53.164;5.802;2024-03-17T15:12:08;7.90;;;5.82;;
52534;SDS011;38443;53.164;5.802;2024-03-17T15:14:34;9.57;;;6.23;;
52534;SDS011;38443;53.164;5.802;2024-03-17T15:16:59;12.13;;;6.63;;
52534;SDS011;38443;53.164;5.802;2024-03-17T15:19:24;11.13;;;6.70;;
52534;SDS011;38443;53.164;5.802;2024-03-17T15:21:50;10.18;;;5.95;;
52534;SDS011;38443;53.164;5.802;2024-03-17T15:24:16;9.85;;;6.03;;
52534;SDS011;38443;53.164;5.802;2024-03-17T15:26:41;8.32;;;6.05;;
52534;SDS011;38443;53.164;5.802;2024-03-17T15:29:06;12.00;;;6.17;;
52534;SDS011;38443;53.164;5.802;2024-03-17T15:31:31;10.87;;;5.93;;
52534;SDS011;38443;53.164;5.802;2024-03-17T15:33:57;9.43;;;6.05;;
52534;SDS011;38443;53.164;5.802;2024-03-17T15:36:22;9.82;;;6.45;;
52534;SDS011;38443;53.164;5.802;2024-03-17T15:38:49;10.43;;;6.38;;
52534;SDS011;38443;53.164;5.802;2024-03-17T15:41:14;9.37;;;6.77;;
52534;SDS011;38443;53.164;5.802;2024-03-17T15:43:40;10.50;;;6.05;;
52534;SDS011;38443;53.164;5.802;2024-03-17T15:46:07;12.57;;;6.00;;
52534;SDS011;38443;53.164;5.802;2024-03-17T15:48:33;9.98;;;6.57;;
52534;SDS011;38443;53.164;5.802;2024-03-17T15:50:58;9.70;;;6.68;;
52534;SDS011;38443;53.164;5.802;2024-03-17T15:53:24;10.57;;;6.47;;
52534;SDS011;38443;53.164;5.802;2024-03-17T15:55:55;10.85;;;6.30;;
52534;SDS011;38443;53.164;5.802;2024-03-17T15:58:20;12.82;;;6.93;;
52534;SDS011;38443;53.164;5.802;2024-03-17T16:00:46;10.30;;;7.05;;
52534;SDS011;38443;53.164;5.802;2024-03-17T16:03:11;10.13;;;6.50;;
52534;SDS011;38443;53.164;5.802;2024-03-17T16:05:38;9.20;;;6.40;;
52534;SDS011;38443;53.164;5.802;2024-03-17T16:08:06;9.02;;;6.15;;
52534;SDS011;38443;53.164;5.802;2024-03-17T16:10:31;10.77;;;6.88;;
52534;SDS011;38443;53.164;5.802;2024-03-17T16:12:57;12.98;;;6.90;;
52534;SDS011;38443;53.164;5.802;2024-03-17T16:15:23;10.63;;;6.43;;
52534;SDS011;38443;53.164;5.802;2024-03-17T16:17:49;10.07;;;6.30;;
52534;SDS011;38443;53.164;5.802;2024-03-17T16:20:19;11.33;;;6.70;;
52534;SDS011;38443;53.164;5.802;2024-03-17T16:22:52;11.63;;;7.28;;
52534;SDS011;38443;53.164;5.802;2024-03-17T16:25:19;11.15;;;6.97;;
52534;SDS011;38443;53.164;5.802;2024-03-17T16:27:46;8.75;;;6.30;;
52534;SDS011;38443;53.164;5.802;2024-03-17T16:30:11;10.77;;;6.70;;
52534;SDS011;38443;53.164;5.802;2024-03-17T16:32:37;10.23;;;6.68;;
52534;SDS011;38443;53.164;5.802;2024-03-17T16:35:03;10.87;;;7.07;;
52534;SDS011;38443;53.164;5.802;2024-03-17T16:37:28;9.90;;;6.25;;
52534;SDS011;38443;53.164;5.802;2024-03-17T16:39:53;12.63;;;7.00;;
52534;SDS011;38443;53.164;5.802;2024-03-17T16:42:20;12.63;;;6.72;;
52534;SDS011;38443;53.164;5.802;2024-03-17T16:44:48;12.23;;;7.33;;
52534;SDS011;38443;53.164;5.802;2024-03-17T16:47:20;11.23;;;6.80;;
52534;SDS011;38443;53.164;5.802;2024-03-17T16:49:50;14.05;;;7.38;;
52534;SDS011;38443;53.164;5.802;2024-03-17T16:52:15;10.27;;;6.23;;
52534;SDS011;38443;53.164;5.802;2024-03-17T16:54:41;10.13;;;6.97;;
52534;SDS011;38443;53.164;5.802;2024-03-17T16:57:07;12.75;;;6.60;;
52534;SDS011;38443;53.164;5.802;2024-03-17T16:59:32;11.65;;;7.15;;
52534;SDS011;38443;53.164;5.802;2024-03-17T17:01:58;12.32;;;6.97;;
52534;SDS011;38443;53.164;5.802;2024-03-17T17:04:23;14.90;;;7.95;;
52534;SDS011;38443;53.164;5.802;2024-03-17T17:06:51;11.60;;;6.47;;
52534;SDS011;38443;53.164;5.802;2024-03-17T17:09:16;11.55;;;6.80;;
52534;SDS011;38443;53.164;5.802;2024-03-17T17:11:41;13.17;;;7.33;;
52534;SDS011;38443;53.164;5.802;2024-03-17T17:14:10;10.15;;;7.30;;
52534;SDS011;38443;53.164;5.802;2024-03-17T17:16:35;13.23;;;7.63;;
52534;SDS011;38443;53.164;5.802;2024-03-17T17:19:02;11.00;;;7.90;;
52534;SDS011;38443;53.164;5.802;2024-03-17T17:21:29;13.18;;;7.90;;
52534;SDS011;38443;53.164;5.802;2024-03-17T17:23:54;10.87;;;6.83;;
52534;SDS011;38443;53.164;5.802;2024-03-17T17:26:23;11.05;;;7.15;;
52534;SDS011;38443;53.164;5.802;2024-03-17T17:28:55;12.25;;;6.68;;
52534;SDS011;38443;53.164;5.802;2024-03-17T17:31:22;10.32;;;6.72;;
52534;SDS011;38443;53.164;5.802;2024-03-17T17:33:48;13.75;;;7.68;;
52534;SDS011;38443;53.164;5.802;2024-03-17T17:36:13;12.20;;;7.10;;
52534;SDS011;38443;53.164;5.802;2024-03-17T17:38:39;11.60;;;7.07;;
52534;SDS011;38443;53.164;5.802;2024-03-17T17:41:05;11.85;;;7.13;;
52534;SDS011;38443;53.164;5.802;2024-03-17T17:43:37;14.45;;;7.00;;
52534;SDS011;38443;53.164;5.802;2024-03-17T17:46:04;12.95;;;7.53;;
52534;SDS011;38443;53.164;5.802;2024-03-17T17:48:30;12.88;;;7.00;;
52534;SDS011;38443;53.164;5.802;2024-03-17T17:51:00;13.00;;;7.13;;
52534;SDS011;38443;53.164;5.802;2024-03-17T17:53:25;11.90;;;6.50;;
52534;SDS011;38443;53.164;5.802;2024-03-17T17:55:50;13.63;;;7.13;;
52534;SDS011;38443;53.164;5.802;2024-03-17T17:58:16;11.60;;;7.43;;
52534;SDS011;38443;53.164;5.802;2024-03-17T18:00:41;12.37;;;6.67;;
52534;SDS011;38443;53.164;5.802;2024-03-17T18:03:06;11.80;;;6.97;;
52534;SDS011;38443;53.164;5.802;2024-03-17T18:05:32;15.00;;;8.38;;
52534;SDS011;38443;53.164;5.802;2024-03-17T18:08:02;11.95;;;6.70;;
52534;SDS011;38443;53.164;5.802;2024-03-17T18:10:28;12.13;;;7.47;;
52534;SDS011;38443;53.164;5.802;2024-03-17T18:12:53;12.20;;;7.13;;
52534;SDS011;38443;53.164;5.802;2024-03-17T18:15:19;15.43;;;7.57;;
52534;SDS011;38443;53.164;5.802;2024-03-17T18:17:44;9.60;;;6.32;;
52534;SDS011;38443;53.164;5.802;2024-03-17T18:20:09;13.80;;;7.30;;
52534;SDS011;38443;53.164;5.802;2024-03-17T18:22:35;10.30;;;6.97;;
52534;SDS011;38443;53.164;5.802;2024-03-17T18:25:00;15.13;;;7.23;;
52534;SDS011;38443;53.164;5.802;2024-03-17T18:27:25;11.13;;;7.70;;
52534;SDS011;38443;53.164;5.802;2024-03-17T18:29:50;13.67;;;8.07;;
52534;SDS011;38443;53.164;5.802;2024-03-17T18:32:16;10.40;;;7.10;;
52534;SDS011;38443;53.164;5.802;2024-03-17T18:34:41;12.10;;;8.17;;
52534;SDS011;38443;53.164;5.802;2024-03-17T18:37:06;14.53;;;7.90;;
52534;SDS011;38443;53.164;5.802;2024-03-17T18:39:32;15.50;;;8.48;;
52534;SDS011;38443;53.164;5.802;2024-03-17T18:41:57;11.77;;;7.17;;
52534;SDS011;38443;53.164;5.802;2024-03-17T18:44:23;13.13;;;7.40;;
52534;SDS011;38443;53.164;5.802;2024-03-17T18:46:48;11.53;;;7.73;;
52534;SDS011;38443;53.164;5.802;2024-03-17T18:49:14;11.93;;;7.63;;
52534;SDS011;38443;53.164;5.802;2024-03-17T18:51:39;10.67;;;6.80;;
52534;SDS011;38443;53.164;5.802;2024-03-17T18:54:04;13.27;;;7.27;;
52534;SDS011;38443;53.164;5.802;2024-03-17T18:56:29;12.68;;;6.93;;
52534;SDS011;38443;53.164;5.802;2024-03-17T18:58:55;11.93;;;7.38;;
52534;SDS011;38443;53.164;5.802;2024-03-17T19:01:20;12.37;;;7.03;;
52534;SDS011;38443;53.164;5.802;2024-03-17T19:03:46;9.73;;;6.50;;
52534;SDS011;38443;53.164;5.802;2024-03-17T19:06:12;12.27;;;7.30;;
52534;SDS011;38443;53.164;5.802;2024-03-17T19:08:38;13.38;;;7.90;;
52534;SDS011;38443;53.164;5.802;2024-03-17T19:11:04;15.43;;;8.23;;
52534;SDS011;38443;53.164;5.802;2024-03-17T19:13:30;13.68;;;8.15;;
52534;SDS011;38443;53.164;5.802;2024-03-17T19:15:57;13.55;;;7.38;;
52534;SDS011;38443;53.164;5.802;2024-03-17T19:18:23;15.23;;;7.63;;
52534;SDS011;38443;53.164;5.802;2024-03-17T19:20:49;18.13;;;8.45;;
52534;SDS011;38443;53.164;5.802;2024-03-17T19:23:14;16.57;;;8.33;;
52534;SDS011;38443;53.164;5.802;2024-03-17T19:25:39;15.57;;;8.40;;
52534;SDS011;38443;53.164;5.802;2024-03-17T19:28:05;15.00;;;8.07;;
52534;SDS011;38443;53.164;5.802;2024-03-17T19:30:31;17.13;;;8.65;;
52534;SDS011;38443;53.164;5.802;2024-03-17T19:32:56;15.23;;;8.93;;
52534;SDS011;38443;53.164;5.802;2024-03-17T19:37:46;14.90;;;7.88;;
52534;SDS011;38443;53.164;5.802;2024-03-17T19:40:14;15.70;;;8.18;;
52534;SDS011;38443;53.164;5.802;2024-03-17T19:42:42;11.25;;;7.00;;
52534;SDS011;38443;53.164;5.802;2024-03-17T19:45:08;17.37;;;8.93;;
52534;SDS011;38443;53.164;5.802;2024-03-17T19:47:33;14.98;;;8.40;;
52534;SDS011;38443;53.164;5.802;2024-03-17T19:49:58;13.07;;;7.87;;
52534;SDS011;38443;53.164;5.802;2024-03-17T19:52:23;15.83;;;8.83;;
52534;SDS011;38443;53.164;5.802;2024-03-17T19:54:50;16.25;;;9.13;;
52534;SDS011;38443;53.164;5.802;2024-03-17T19:57:15;14.40;;;9.20;;
52534;SDS011;38443;53.164;5.802;2024-03-17T19:59:40;12.83;;;8.43;;
52534;SDS011;38443;53.164;5.802;2024-03-17T20:02:07;18.98;;;9.25;;
52534;SDS011;38443;53.164;5.802;2024-03-17T20:04:35;19.63;;;8.55;;
52534;SDS011;38443;53.164;5.802;2024-03-17T20:07:01;13.95;;;7.55;;